Time;durP1;ratioP1;P1;durP2;ratioP2;P2;SDS_P1;SDS_P2;PMS_P1;PMS_P2;Temp;Humidity;BMP_temperature;BMP_pressure;BME280_temperature;BME280_humidity;BME280_pressure;Samples;Min_cycle;Max_cycle;Signal;HPM_P1;HPM_P2
2023/08/01 00:04:16;;;;;;;0.28;0.20;;;;;;;17.19;75.64;98832.09;20792862;28;20305;-82
2023/08/01 00:14:20;;;;;;;0.65;0.50;;;;;;;17.39;74.10;98820.28;20773579;28;20220;-84
2023/08/01 00:24:22;;;;;;;3.60;0.50;;;;;;;16.89;74.85;98831.72;20780729;28;20215;-85
2023/08/01 00:34:25;;;;;;;0.00;0.00;;;;;;;16.75;74.87;98797.69;20804763;28;20566;-83
2023/08/01 00:44:28;;;;;;;0.25;0.10;;;;;;;16.62;74.81;98779.44;20803080;28;20594;-82
2023/08/01 00:54:35;;;;;;;0.20;0.20;;;;;;;16.07;76.33;98771.31;20772547;28;20258;-82
2023/08/01 01:04:38;;;;;;;0.10;0.10;;;;;;;16.58;74.74;98770.13;20780849;28;20255;-82
2023/08/01 01:14:41;;;;;;;0.43;0.20;;;;;;;16.83;73.92;98765.19;20763154;28;20286;-81
2023/08/01 01:24:44;;;;;;;1.42;0.52;;;;;;;16.65;73.63;98741.69;20774360;28;20196;-82
2023/08/01 01:34:46;;;;;;;1.73;0.70;;;;;;;16.91;72.82;98726.19;20774957;28;20646;-81
2023/08/01 01:44:49;;;;;;;2.15;0.63;;;;;;;17.00;71.94;98718.06;20780520;28;20268;-81
2023/08/01 01:54:51;;;;;;;0.60;0.50;;;;;;;16.85;73.22;98703.09;20772376;28;20253;-81
2023/08/01 02:04:54;;;;;;;1.00;0.90;;;;;;;16.77;73.35;98692.97;20769105;28;20301;-81
2023/08/01 02:14:58;;;;;;;0.70;0.70;;;;;;;16.65;73.75;98684.88;20782673;28;20334;-80
2023/08/01 02:25:01;;;;;;;1.15;0.50;;;;;;;16.25;73.20;98692.63;20828494;28;20493;-81
2023/08/01 02:35:04;;;;;;;0.73;0.50;;;;;;;15.23;76.94;98701.81;20786459;28;20220;-82
2023/08/01 02:45:07;;;;;;;2.40;1.55;;;;;;;16.16;72.58;98693.06;20790596;28;20192;-80
2023/08/01 02:55:10;;;;;;;3.03;2.23;;;;;;;15.23;75.81;98707.50;20793554;28;20274;-79
2023/08/01 03:05:13;;;;;;;5.67;3.37;;;;;;;15.64;74.89;98711.66;20793548;28;20299;-80
2023/08/01 03:15:15;;;;;;;5.57;4.38;;;;;;;16.12;74.10;98699.94;20804976;28;20232;-80
2023/08/01 03:25:18;;;;;;;8.75;6.47;;;;;;;16.22;72.92;98707.66;20786093;28;20245;-79
2023/08/01 03:35:20;;;;;;;10.75;8.00;;;;;;;15.89;74.59;98716.56;20786522;28;20216;-80
2023/08/01 03:45:22;;;;;;;15.10;10.77;;;;;;;15.95;74.39;98720.63;20785847;28;20200;-79
2023/08/01 03:55:25;;;;;;;17.03;12.87;;;;;;;15.41;76.94;98731.03;20820347;28;20628;-79
2023/08/01 04:05:28;;;;;;;15.55;13.02;;;;;;;16.31;73.11;98727.09;20783737;28;20274;-80
2023/08/01 04:15:31;;;;;;;14.87;13.07;;;;;;;16.19;74.01;98736.84;20767006;28;20270;-78
2023/08/01 04:25:33;;;;;;;20.63;12.80;;;;;;;16.07;73.20;98757.13;20786959;28;20192;-79
2023/08/01 04:35:36;;;;;;;16.92;14.63;;;;;;;16.13;72.68;98764.00;20808473;28;20514;-78
2023/08/01 04:45:38;;;;;;;19.00;13.43;;;;;;;15.52;74.49;98763.06;20818822;28;20196;-78
2023/08/01 04:55:41;;;;;;;14.23;10.03;;;;;;;15.43;74.42;98768.31;20794617;28;20553;-79
2023/08/01 05:05:43;;;;;;;12.15;8.35;;;;;;;15.48;73.64;98770.75;20783713;28;21334;-80
2023/08/01 05:15:47;;;;;;;8.87;7.90;;;;;;;15.70;71.61;98777.31;20791781;28;20224;-79
2023/08/01 05:25:50;;;;;;;13.93;8.17;;;;;;;15.89;71.62;98787.47;20788678;28;20584;-79
2023/08/01 05:35:53;;;;;;;13.80;8.27;;;;;;;15.22;74.27;98796.53;20769040;28;20726;-79
2023/08/01 05:45:55;;;;;;;10.50;8.82;;;;;;;15.70;73.13;98806.47;20788741;28;20667;-82
2023/08/01 05:55:58;;;;;;;16.03;10.23;;;;;;;16.10;72.61;98801.72;20789334;28;20621;-79
2023/08/01 06:06:00;;;;;;;16.20;11.40;;;;;;;15.48;74.93;98810.44;20778060;28;20228;-79
2023/08/01 06:16:03;;;;;;;20.30;12.47;;;;;;;15.87;72.98;98815.44;20749926;28;20286;-79
2023/08/01 06:26:06;;;;;;;19.23;14.03;;;;;;;15.44;73.56;98818.94;20769267;28;20219;-80
2023/08/01 06:36:08;;;;;;;16.47;13.47;;;;;;;16.17;71.82;98815.91;20780442;28;20271;-79
2023/08/01 06:46:11;;;;;;;21.13;15.43;;;;;;;15.53;74.98;98829.91;20803969;28;20192;-80
2023/08/01 06:56:14;;;;;;;18.55;13.35;;;;;;;15.97;72.80;98821.16;20773470;28;20279;-79
2023/08/01 07:06:16;;;;;;;19.58;13.95;;;;;;;16.22;72.56;98832.56;20770208;28;21794;-80
2023/08/01 07:16:19;;;;;;;16.42;13.13;;;;;;;16.23;72.63;98828.50;20782639;28;20220;-78
2023/08/01 07:26:22;;;;;;;17.23;13.57;;;;;;;16.14;72.29;98836.56;20785353;28;20201;-79
2023/08/01 07:36:25;;;;;;;18.42;13.00;;;;;;;15.85;73.68;98851.94;20786987;28;20224;-78
2023/08/01 07:46:27;;;;;;;14.90;11.25;;;;;;;15.99;72.39;98852.75;20759761;28;20200;-79
2023/08/01 07:56:30;;;;;;;17.90;11.07;;;;;;;16.21;71.15;98856.47;20789635;28;20294;-79
2023/08/01 08:06:32;;;;;;;13.43;9.48;;;;;;;15.54;72.46;98865.53;20786764;28;20275;-78
2023/08/01 08:16:35;;;;;;;10.65;7.78;;;;;;;16.20;70.51;98863.34;20783436;28;20290;-79
2023/08/01 08:26:39;;;;;;;10.43;7.55;;;;;;;16.94;67.60;98871.09;20770366;28;20212;-78
2023/08/01 08:36:42;;;;;;;9.00;6.23;;;;;;;16.24;68.38;98869.81;20784304;28;20232;-79
2023/08/01 08:46:52;;;;;;;9.95;7.00;;;;;;;16.81;66.83;98875.59;20799571;28;20192;-79
2023/08/01 08:56:55;;;;;;;7.05;5.47;;;;;;;16.85;66.56;98874.38;20751558;28;20228;-78
2023/08/01 09:07:03;;;;;;;7.82;6.32;;;;;;;16.41;68.48;98869.06;20798760;28;20706;-78
2023/08/01 09:17:09;;;;;;;8.05;6.30;;;;;;;16.71;66.83;98884.94;20782816;28;20611;-80
2023/08/01 09:27:12;;;;;;;12.37;6.93;;;;;;;16.51;68.61;98891.00;20796248;28;20196;-79
2023/08/01 09:37:15;;;;;;;7.53;6.65;;;;;;;17.39;67.35;98877.16;20798803;28;20513;-78
2023/08/01 09:47:19;;;;;;;5.90;4.88;;;;;;;17.40;65.40;98875.94;20771005;28;20192;-78
2023/08/01 09:57:22;;;;;;;6.55;4.35;;;;;;;17.48;61.24;98881.19;20774084;28;20217;-78
2023/08/01 10:07:26;;;;;;;7.40;4.25;;;;;;;18.13;59.57;98878.88;20772985;28;20232;-79
2023/08/01 10:17:29;;;;;;;5.57;3.70;;;;;;;18.91;57.08;98870.59;20774556;28;20220;-79
2023/08/01 10:27:35;;;;;;;6.15;3.10;;;;;;;17.76;58.93;98863.19;20775326;28;20196;-79
2023/08/01 10:37:46;;;;;;;5.00;2.55;;;;;;;16.48;63.75;98903.16;20765287;28;20692;-79
2023/08/01 10:47:50;;;;;;;7.75;4.13;;;;;;;15.98;72.46;98907.09;20770273;28;20266;-80
2023/08/01 10:57:54;;;;;;;5.97;4.63;;;;;;;16.93;70.07;98899.94;20757534;28;20236;-80
2023/08/01 11:08:00;;;;;;;8.90;5.38;;;;;;;17.19;70.76;98894.63;20784298;28;20235;-79
2023/08/01 11:18:04;;;;;;;8.55;5.00;;;;;;;17.31;70.93;98892.59;20824813;28;20573;-81
2023/08/01 11:28:12;;;;;;;7.03;4.10;;;;;;;15.90;71.24;98956.47;20761632;28;20193;-79
2023/08/01 11:38:14;;;;;;;4.88;3.03;;;;;;;15.64;72.56;98971.72;20787512;28;20266;-81
2023/08/01 11:48:17;;;;;;;6.57;4.28;;;;;;;15.82;74.16;98967.00;20784792;28;20243;-79
2023/08/01 11:58:34;;;;;;;5.75;3.47;;;;;;;16.69;70.23;98953.50;20788246;28;20220;-80
2023/08/01 12:08:37;;;;;;;2.53;2.33;;;;;;;15.71;72.43;98971.78;20822452;28;20228;-80
2023/08/01 12:18:42;;;;;;;3.30;2.60;;;;;;;16.72;69.17;98981.09;20775738;28;20298;-79
2023/08/01 12:29:01;;;;;;;13.63;3.25;;;;;;;18.16;67.14;98972.84;20787339;28;20188;-78
2023/08/01 12:39:04;;;;;;;6.13;3.05;;;;;;;17.97;67.00;98975.34;20762782;28;20294;-80
2023/08/01 12:49:07;;;;;;;5.13;2.90;;;;;;;17.99;65.03;98996.47;20788387;28;20581;-78
2023/08/01 12:59:10;;;;;;;4.80;2.20;;;;;;;17.32;63.32;99003.09;20815455;28;20228;-79
2023/08/01 13:09:12;;;;;;;4.95;2.22;;;;;;;18.16;62.27;98991.94;20760800;28;20745;-79
2023/08/01 13:19:19;;;;;;;6.10;3.10;;;;;;;17.06;66.31;99001.44;20792308;28;20220;-80
2023/08/01 13:29:21;;;;;;;5.82;2.97;;;;;;;17.27;65.71;98994.97;20763937;28;20266;-79
2023/08/01 13:39:24;;;;;;;5.70;2.50;;;;;;;18.00;62.05;98985.91;20790552;28;20216;-78
2023/08/01 13:49:27;;;;;;;5.55;2.00;;;;;;;18.83;56.13;98973.69;20780234;28;20201;-78
2023/08/01 13:59:30;;;;;;;4.72;1.60;;;;;;;18.46;55.27;98994.22;20781940;28;20219;-78
2023/08/01 14:09:34;;;;;;;6.80;1.63;;;;;;;17.85;56.21;98997.31;20785819;28;20282;-79
2023/08/01 14:19:37;;;;;;;3.97;1.30;;;;;;;19.00;53.99;99009.78;20779866;28;20757;-79
2023/08/01 14:29:41;;;;;;;6.10;1.55;;;;;;;18.80;52.78;98988.78;20763953;28;20542;-79
2023/08/01 14:39:44;;;;;;;4.75;1.33;;;;;;;20.10;50.49;98979.44;20810651;28;20289;-80
2023/08/01 14:49:47;;;;;;;3.22;1.58;;;;;;;19.82;50.97;98989.94;20779560;28;20200;-80
2023/08/01 14:59:49;;;;;;;5.25;1.33;;;;;;;18.97;48.55;99004.94;20792113;28;20216;-78
2023/08/01 15:09:52;;;;;;;3.60;0.93;;;;;;;19.46;47.46;99015.16;20790989;28;20231;-80
2023/08/01 15:19:55;;;;;;;4.88;1.17;;;;;;;18.63;49.44;99002.72;20787098;28;20220;-80
2023/08/01 15:29:57;;;;;;;2.67;1.15;;;;;;;18.95;49.93;99015.97;20795161;28;20196;-80
2023/08/01 15:40:00;;;;;;;5.32;1.23;;;;;;;19.47;46.65;99021.69;20787859;28;20216;-79
2023/08/01 15:50:02;;;;;;;5.35;1.30;;;;;;;18.37;53.90;99011.78;20788183;28;20201;-81
2023/08/01 16:00:07;;;;;;;2.80;1.00;;;;;;;18.75;51.66;99023.41;20808333;28;20225;-80
2023/08/01 16:10:13;;;;;;;4.13;0.90;;;;;;;19.20;49.46;99019.44;20828639;28;20710;-79
2023/08/01 16:20:16;;;;;;;5.55;1.27;;;;;;;19.61;48.37;99021.56;20777965;28;20479;-81
2023/08/01 16:30:21;;;;;;;4.05;1.13;;;;;;;19.84;46.46;99029.47;20752964;28;20224;-79
2023/08/01 16:40:23;;;;;;;2.55;1.23;;;;;;;19.65;47.87;99028.03;20749979;28;20242;-80
2023/08/01 16:50:26;;;;;;;4.15;1.30;;;;;;;19.19;44.64;99028.41;20752510;28;20991;-80
2023/08/01 17:00:29;;;;;;;2.10;0.80;;;;;;;19.43;45.06;99043.72;20735699;28;20225;-80
2023/08/01 17:10:34;;;;;;;2.70;0.75;;;;;;;19.16;43.03;99041.47;20759960;28;20232;-81
2023/08/01 17:20:40;;;;;;;2.85;0.60;;;;;;;19.00;42.54;99052.56;20749626;28;20726;-80
2023/08/01 17:30:42;;;;;;;2.85;0.80;;;;;;;18.18;42.90;99074.94;20742341;28;20201;-81
2023/08/01 17:40:45;;;;;;;2.45;0.60;;;;;;;18.92;39.69;99076.66;20717884;28;20560;-80
2023/08/01 17:50:48;;;;;;;4.53;0.50;;;;;;;18.90;39.62;99081.97;20732594;28;20200;-79
2023/08/01 18:00:51;;;;;;;1.73;0.68;;;;;;;19.01;40.76;99090.44;20749186;28;20255;-79
2023/08/01 18:10:53;;;;;;;3.28;0.35;;;;;;;19.05;40.82;99096.94;20754972;28;20228;-80
2023/08/01 18:20:58;;;;;;;2.45;0.73;;;;;;;18.79;41.96;99112.56;20739577;28;20219;-79
2023/08/01 18:31:08;;;;;;;3.90;0.93;;;;;;;18.48;42.18;99117.13;20764019;28;20508;-79
2023/08/01 18:41:10;;;;;;;2.22;0.77;;;;;;;18.56;42.23;99119.56;20755082;28;20212;-79
2023/08/01 18:51:16;;;;;;;2.78;0.70;;;;;;;19.09;41.52;99127.06;20775754;28;20489;-79
2023/08/01 19:01:24;;;;;;;3.15;0.88;;;;;;;18.50;43.25;99143.16;20763246;28;20224;-80
2023/08/01 19:11:29;;;;;;;3.55;0.95;;;;;;;18.13;45.35;99155.06;20779258;28;20232;-79
2023/08/01 19:21:36;;;;;;;3.55;0.85;;;;;;;17.85;47.56;99173.75;20769565;28;20221;-80
2023/08/01 19:31:38;;;;;;;6.50;1.30;;;;;;;17.51;47.25;99176.16;20814106;28;20201;-79
2023/08/01 19:41:41;;;;;;;5.30;1.40;;;;;;;17.35;49.37;99200.50;20802154;28;20213;-79
2023/08/01 19:51:44;;;;;;;5.30;1.05;;;;;;;18.09;48.43;99212.00;20788735;28;20635;-80
2023/08/01 20:01:48;;;;;;;3.15;1.00;;;;;;;17.21;50.84;99213.44;20785687;28;20622;-78
2023/08/01 20:11:50;;;;;;;2.55;1.15;;;;;;;16.91;51.23;99220.63;20800688;28;20701;-79
2023/08/01 20:21:53;;;;;;;4.63;1.20;;;;;;;17.47;50.09;99222.88;20784519;28;20221;-78
2023/08/01 20:31:56;;;;;;;7.28;3.38;;;;;;;17.29;50.33;99225.66;20782790;28;20651;-79
2023/08/01 20:41:59;;;;;;;5.85;0.90;;;;;;;17.36;50.83;99228.53;20801884;28;20228;-78
2023/08/01 20:52:02;;;;;;;3.67;0.90;;;;;;;17.27;51.32;99224.47;20784646;28;20239;-80
2023/08/01 21:02:08;;;;;;;4.03;1.10;;;;;;;16.99;52.09;99228.78;20769192;28;20282;-79
2023/08/01 21:12:11;;;;;;;4.80;1.80;;;;;;;16.69;52.91;99231.06;20789046;28;20184;-78
2023/08/01 21:22:14;;;;;;;5.47;1.23;;;;;;;16.75;53.32;99236.00;20767637;28;20580;-78
2023/08/01 21:32:16;;;;;;;3.55;1.13;;;;;;;16.22;55.04;99235.59;20793228;28;20193;-79
2023/08/01 21:42:19;;;;;;;3.17;1.33;;;;;;;16.41;54.83;99226.00;20823833;28;20232;-79
2023/08/01 21:52:23;;;;;;;2.90;1.10;;;;;;;16.24;56.58;99221.03;20759800;28;20245;-78
2023/08/01 22:02:26;;;;;;;6.90;1.70;;;;;;;16.59;56.10;99220.47;20808765;28;20247;-78
2023/08/01 22:12:29;;;;;;;4.53;1.33;;;;;;;15.98;58.01;99216.38;20806931;28;20245;-79
2023/08/01 22:22:32;;;;;;;3.42;1.25;;;;;;;16.49;56.23;99214.31;20826358;28;20277;-78
2023/08/01 22:32:34;;;;;;;7.63;1.40;;;;;;;16.12;57.81;99219.28;20795242;28;20255;-78
2023/08/01 22:42:37;;;;;;;4.82;1.67;;;;;;;16.28;58.76;99210.47;20774476;28;20255;-79
2023/08/01 22:52:40;;;;;;;8.10;1.53;;;;;;;15.73;59.86;99204.75;20777121;28;20518;-78
2023/08/01 23:02:43;;;;;;;5.70;1.40;;;;;;;15.70;60.48;99203.53;20758039;28;20619;-78
2023/08/01 23:12:46;;;;;;;4.13;1.00;;;;;;;15.64;61.42;99193.72;20790315;28;20467;-77
2023/08/01 23:22:48;;;;;;;7.23;1.20;;;;;;;15.25;63.00;99178.34;20792125;28;20328;-78
2023/08/01 23:32:55;;;;;;;5.80;1.23;;;;;;;15.60;62.59;99186.38;20793786;28;20197;-77
2023/08/01 23:42:58;;;;;;;3.97;1.23;;;;;;;15.54;62.95;99180.28;20790037;28;20278;-78
2023/08/01 23:53:01;;;;;;;5.03;1.23;;;;;;;15.39;62.99;99172.84;20771211;28;20220;-78
